createdAt,value
2019-02-15T00:01:28.183Z,20.74
2019-02-15T00:03:56.343Z,20.75
2019-02-15T00:06:24.503Z,20.72
2019-02-15T00:08:52.648Z,20.74
2019-02-15T00:11:20.831Z,20.69
2019-02-15T00:13:48.970Z,20.68
2019-02-15T00:16:17.155Z,20.70
2019-02-15T00:19:07.029Z,20.69
2019-02-15T00:21:39.316Z,20.66
2019-02-15T00:24:07.521Z,20.66
2019-02-15T00:26:35.682Z,20.70
2019-02-15T00:29:03.832Z,20.68
2019-02-15T00:31:32.001Z,20.68
2019-02-15T00:34:00.154Z,20.63
2019-02-15T00:36:28.309Z,20.64
2019-02-15T00:38:56.480Z,20.65
2019-02-15T00:41:24.667Z,20.65
2019-02-15T00:43:52.799Z,20.64
2019-02-15T00:46:52.000Z,20.61
2019-02-15T00:49:30.558Z,20.63
2019-02-15T00:52:16.429Z,20.64
2019-02-15T00:55:06.574Z,20.59
2019-02-15T00:58:02.618Z,20.61
2019-02-15T01:00:52.715Z,20.56
2019-02-15T01:03:42.869Z,20.61
2019-02-15T01:06:35.999Z,20.56
2019-02-15T01:09:41.637Z,20.60
2019-02-15T01:12:13.585Z,20.61
2019-02-15T01:14:41.782Z,20.64
2019-02-15T01:17:10.405Z,20.59
2019-02-15T01:19:38.608Z,20.57
2019-02-15T01:22:06.775Z,20.52
2019-02-15T01:24:34.958Z,20.60
2019-02-15T01:27:17.675Z,20.55
2019-02-15T01:30:17.112Z,20.57
2019-02-15T01:32:59.505Z,20.58
2019-02-15T01:35:40.696Z,20.57
2019-02-15T01:41:22.013Z,20.56
2019-02-15T01:44:10.357Z,20.52
2019-02-15T01:47:00.707Z,20.52
2019-02-15T01:49:28.926Z,20.53
2019-02-15T01:51:57.084Z,20.53
2019-02-15T01:54:25.301Z,20.51
2019-02-15T01:56:53.476Z,20.49
2019-02-15T01:59:21.650Z,20.48
2019-02-15T02:01:49.870Z,20.49
2019-02-15T02:04:18.134Z,20.48
2019-02-15T02:06:46.280Z,20.44
2019-02-15T02:09:14.552Z,20.44
2019-02-15T02:11:42.736Z,20.47
2019-02-15T02:14:10.903Z,20.46
2019-02-15T02:16:39.069Z,20.47
2019-02-15T02:19:07.248Z,20.45
2019-02-15T02:21:35.438Z,20.42
2019-02-15T02:24:03.623Z,20.47
2019-02-15T02:26:31.829Z,20.42
2019-02-15T02:28:59.991Z,20.42
2019-02-15T02:31:28.208Z,20.42
2019-02-15T02:33:56.357Z,20.38
2019-02-15T02:36:35.792Z,20.40
2019-02-15T02:39:04.742Z,20.36
2019-02-15T02:41:32.881Z,20.37
2019-02-15T02:44:01.053Z,20.34
2019-02-15T02:46:29.251Z,20.36
2019-02-15T02:48:57.427Z,20.38
2019-02-15T02:51:25.637Z,20.36
2019-02-15T02:53:53.814Z,20.38
2019-02-15T02:56:22.013Z,20.36
2019-02-15T02:58:50.171Z,20.35
2019-02-15T03:01:18.292Z,20.33
2019-02-15T03:03:46.434Z,20.38
2019-02-15T03:06:14.569Z,20.39
2019-02-15T03:08:42.746Z,20.36
2019-02-15T03:11:10.874Z,20.32
2019-02-15T03:13:39.026Z,20.35
2019-02-15T03:16:07.172Z,20.35
2019-02-15T03:18:35.310Z,20.33
2019-02-15T03:21:03.480Z,20.32
2019-02-15T03:23:31.650Z,20.34
2019-02-15T03:25:59.810Z,20.33
2019-02-15T03:28:28.011Z,20.32
2019-02-15T03:30:56.250Z,20.32
2019-02-15T03:33:24.358Z,20.35
2019-02-15T03:35:57.810Z,20.31
2019-02-15T03:38:32.514Z,20.32
2019-02-15T03:41:03.034Z,20.27
2019-02-15T03:43:31.183Z,20.29
2019-02-15T03:45:59.554Z,20.27
2019-02-15T03:48:27.680Z,20.29
2019-02-15T03:50:55.823Z,20.28
2019-02-15T03:53:23.974Z,20.25
2019-02-15T03:55:52.122Z,20.28
2019-02-15T03:58:20.271Z,20.26
2019-02-15T04:00:48.427Z,20.25
2019-02-15T04:03:16.557Z,20.26
2019-02-15T04:05:44.716Z,20.26
2019-02-15T04:08:12.853Z,20.24
2019-02-15T04:10:41.012Z,20.24
2019-02-15T04:13:09.188Z,20.21
2019-02-15T04:15:37.297Z,20.21
2019-02-15T04:18:05.430Z,20.22
2019-02-15T04:20:33.561Z,20.20
2019-02-15T04:23:01.760Z,20.23
2019-02-15T04:25:29.954Z,20.21
2019-02-15T04:27:58.132Z,20.26
2019-02-15T04:30:26.286Z,20.24
2019-02-15T04:32:54.412Z,20.23
2019-02-15T04:35:22.572Z,20.19
2019-02-15T04:37:50.713Z,20.17
2019-02-15T04:40:18.844Z,20.20
2019-02-15T04:42:47.019Z,20.21
2019-02-15T04:45:15.144Z,20.16
2019-02-15T04:47:43.310Z,20.16
2019-02-15T04:50:11.535Z,20.16
2019-02-15T04:52:39.734Z,20.17
2019-02-15T04:55:07.885Z,20.16
2019-02-15T04:57:36.928Z,20.17
2019-02-15T05:00:05.466Z,20.16
2019-02-15T05:02:33.601Z,20.16
2019-02-15T05:05:01.895Z,20.16
2019-02-15T05:07:30.257Z,20.15
2019-02-15T05:09:58.393Z,20.12
2019-02-15T05:12:26.562Z,20.12
2019-02-15T05:14:54.719Z,20.13
2019-02-15T05:17:22.847Z,20.12
2019-02-15T05:19:50.994Z,20.11
2019-02-15T05:22:19.215Z,20.09
2019-02-15T05:24:47.396Z,20.11
2019-02-15T05:27:15.521Z,20.07
2019-02-15T05:29:43.665Z,20.10
2019-02-15T05:32:11.821Z,20.07
2019-02-15T05:34:39.970Z,20.12
2019-02-15T05:37:08.295Z,20.09
2019-02-15T05:39:36.427Z,20.10
2019-02-15T05:42:04.604Z,20.09
2019-02-15T05:44:32.751Z,20.06
2019-02-15T05:47:00.866Z,20.06
2019-02-15T05:49:29.003Z,20.05
2019-02-15T05:51:57.141Z,20.07
2019-02-15T05:54:25.298Z,20.02
2019-02-15T05:56:53.512Z,20.03
2019-02-15T05:59:21.629Z,20.04
2019-02-15T06:01:49.817Z,20.03
2019-02-15T06:04:17.956Z,20.02
2019-02-15T06:06:46.113Z,20.02
2019-02-15T06:09:14.252Z,20.00
2019-02-15T06:11:42.401Z,20.01
2019-02-15T06:14:10.572Z,19.99
2019-02-15T06:16:38.709Z,19.98
2019-02-15T06:19:06.873Z,19.99
2019-02-15T06:21:35.027Z,20.02
2019-02-15T06:24:03.209Z,19.99
2019-02-15T06:26:31.346Z,20.00
2019-02-15T06:28:59.494Z,19.97
2019-02-15T06:31:27.675Z,19.96
2019-02-15T06:33:55.805Z,19.95
2019-02-15T06:36:25.617Z,19.96
2019-02-15T06:38:53.749Z,19.98
2019-02-15T06:41:21.900Z,19.95
2019-02-15T06:43:50.093Z,19.92
2019-02-15T06:46:18.247Z,19.94
2019-02-15T06:48:46.386Z,19.96
2019-02-15T06:51:14.519Z,19.95
2019-02-15T06:53:42.813Z,19.96
2019-02-15T06:56:11.177Z,19.97
2019-02-15T06:58:45.966Z,19.98
2019-02-15T07:01:20.512Z,19.92
2019-02-15T07:03:55.860Z,19.96
2019-02-15T07:06:23.988Z,19.94
2019-02-15T07:08:52.137Z,20.03
2019-02-15T07:11:20.309Z,19.97
2019-02-15T07:13:48.461Z,20.00
2019-02-15T07:16:16.724Z,19.99
2019-02-15T07:18:44.874Z,20.02
2019-02-15T07:21:13.003Z,19.99
2019-02-15T07:23:41.213Z,20.02
2019-02-15T07:26:09.342Z,20.04
2019-02-15T07:28:37.490Z,20.01
2019-02-15T07:31:05.640Z,20.01
2019-02-15T07:33:33.781Z,20.03
2019-02-15T07:36:02.239Z,20.01
2019-02-15T07:38:30.381Z,20.04
2019-02-15T07:40:58.566Z,20.04
2019-02-15T07:43:26.706Z,20.07
2019-02-15T07:45:54.851Z,20.04
2019-02-15T07:48:23.052Z,20.06
2019-02-15T07:50:51.234Z,20.08
2019-02-15T07:53:19.403Z,20.09
2019-02-15T07:55:47.563Z,20.16
2019-02-15T07:58:15.804Z,20.20
2019-02-15T08:00:43.950Z,20.25
2019-02-15T08:03:12.125Z,20.28
2019-02-15T08:05:40.274Z,20.36
2019-02-15T08:08:08.436Z,20.29
2019-02-15T08:10:36.580Z,20.26
2019-02-15T08:13:04.856Z,20.31
2019-02-15T08:15:36.338Z,20.34
2019-02-15T08:18:02.873Z,20.40
2019-02-15T08:20:31.116Z,20.38
2019-02-15T08:22:59.306Z,20.36
2019-02-15T08:25:27.470Z,20.41
2019-02-15T08:27:55.609Z,20.41
2019-02-15T08:30:23.765Z,20.45
2019-02-15T08:32:51.948Z,20.47
2019-02-15T08:35:20.234Z,20.53
2019-02-15T08:37:48.374Z,20.56
2019-02-15T08:40:16.528Z,20.61
2019-02-15T08:42:44.819Z,20.62
2019-02-15T08:45:12.992Z,20.65
2019-02-15T08:47:41.158Z,20.74
2019-02-15T08:50:09.567Z,20.75
2019-02-15T08:52:37.671Z,20.76
2019-02-15T08:55:06.092Z,20.72
2019-02-15T08:57:34.226Z,20.77
2019-02-15T09:00:02.401Z,20.83
2019-02-15T09:02:30.526Z,20.83
2019-02-15T09:04:58.985Z,20.89
2019-02-15T09:07:27.130Z,20.94
2019-02-15T09:09:55.309Z,20.96
2019-02-15T09:12:23.433Z,20.96
2019-02-15T09:14:51.581Z,21.04
2019-02-15T09:17:19.813Z,21.06
2019-02-15T09:19:48.070Z,21.09
2019-02-15T09:22:16.229Z,21.13
2019-02-15T09:24:44.370Z,21.14
2019-02-15T09:27:24.519Z,21.19
2019-02-15T09:29:52.658Z,21.20
2019-02-15T09:32:20.809Z,21.23
2019-02-15T09:34:48.950Z,21.25
2019-02-15T09:37:17.141Z,21.32
2019-02-15T09:39:45.273Z,21.30
2019-02-15T09:42:13.442Z,21.31
2019-02-15T09:44:41.635Z,21.37
2019-02-15T09:47:09.794Z,21.39
2019-02-15T09:49:37.938Z,21.46
2019-02-15T09:52:06.139Z,21.48
2019-02-15T09:54:34.293Z,21.52
2019-02-15T09:57:02.545Z,21.56
2019-02-15T09:59:30.697Z,21.61
2019-02-15T10:01:58.870Z,21.62
2019-02-15T10:04:27.006Z,21.69
2019-02-15T10:06:55.304Z,21.71
2019-02-15T10:09:23.549Z,21.66
2019-02-15T10:11:51.714Z,21.70
2019-02-15T10:14:19.848Z,21.76
2019-02-15T10:16:48.091Z,21.79
2019-02-15T10:19:22.224Z,21.85
2019-02-15T10:21:46.019Z,21.85
2019-02-15T10:24:14.202Z,21.90
2019-02-15T10:26:42.373Z,21.95
2019-02-15T10:29:10.713Z,21.98
2019-02-15T10:31:38.868Z,22.03
2019-02-15T10:34:07.047Z,21.98
2019-02-15T10:36:35.179Z,22.03
2019-02-15T10:39:04.798Z,22.02
2019-02-15T10:41:33.016Z,22.01
2019-02-15T10:44:01.191Z,22.11
2019-02-15T10:46:37.489Z,22.14
2019-02-15T10:48:59.101Z,22.11
2019-02-15T10:51:27.232Z,22.13
2019-02-15T10:53:55.396Z,22.10
2019-02-15T10:56:23.531Z,22.19
2019-02-15T10:58:51.693Z,22.20
2019-02-15T11:01:19.850Z,22.24
2019-02-15T11:03:48.099Z,22.26
2019-02-15T11:06:16.235Z,22.26
2019-02-15T11:08:44.372Z,22.18
2019-02-15T11:11:12.666Z,22.20
2019-02-15T11:13:40.864Z,22.24
2019-02-15T11:16:09.110Z,22.23
2019-02-15T11:18:37.275Z,22.21
2019-02-15T11:21:05.423Z,22.17
2019-02-15T11:23:33.593Z,22.25
2019-02-15T11:26:01.738Z,22.18
2019-02-15T11:28:29.890Z,22.21
2019-02-15T11:30:58.040Z,22.27
2019-02-15T11:33:26.227Z,21.79
2019-02-15T11:35:54.481Z,22.27
2019-02-15T11:38:22.650Z,22.22
2019-02-15T11:40:50.823Z,22.20
2019-02-15T11:43:18.974Z,22.12
2019-02-15T11:45:47.125Z,22.23
2019-02-15T11:48:15.303Z,22.24
2019-02-15T11:50:43.446Z,22.24
2019-02-15T11:53:11.600Z,22.21
2019-02-15T11:55:39.751Z,22.28
2019-02-15T11:58:07.920Z,22.28
2019-02-15T12:00:36.417Z,22.27
2019-02-15T12:03:04.577Z,22.29
2019-02-15T12:05:32.730Z,22.23
2019-02-15T12:08:00.867Z,22.23
2019-02-15T12:10:29.033Z,22.25
2019-02-15T12:12:57.246Z,22.32
2019-02-15T12:15:25.436Z,22.31
2019-02-15T12:17:53.687Z,22.31
2019-02-15T12:20:21.877Z,22.26
2019-02-15T12:22:50.116Z,22.29
2019-02-15T12:25:18.296Z,22.22
2019-02-15T12:27:46.446Z,22.25
2019-02-15T12:30:14.633Z,22.13
2019-02-15T12:32:42.795Z,22.17
2019-02-15T12:35:11.119Z,22.20
2019-02-15T12:37:39.287Z,22.23
2019-02-15T12:40:07.588Z,22.29
2019-02-15T12:42:35.775Z,22.29
2019-02-15T12:45:04.308Z,22.31
2019-02-15T12:47:32.478Z,22.34
2019-02-15T12:50:00.666Z,22.36
2019-02-15T12:52:28.893Z,22.39
2019-02-15T12:54:57.065Z,22.37
2019-02-15T12:57:25.277Z,22.35
2019-02-15T12:59:53.657Z,22.30
2019-02-15T13:02:21.844Z,22.33
2019-02-15T13:04:50.052Z,22.37
2019-02-15T13:07:18.302Z,22.41
2019-02-15T13:09:46.468Z,22.45
2019-02-15T13:12:14.784Z,22.42
2019-02-15T13:14:43.003Z,22.05
2019-02-15T13:17:11.201Z,22.55
2019-02-15T13:19:39.461Z,22.59
2019-02-15T13:22:08.058Z,22.56
2019-02-15T13:24:36.323Z,22.56
2019-02-15T13:27:10.716Z,22.59
2019-02-15T13:29:39.036Z,22.57
2019-02-15T13:32:10.272Z,22.57
2019-02-15T13:34:43.967Z,22.58
2019-02-15T13:37:13.209Z,22.59
2019-02-15T13:39:43.121Z,22.62
2019-02-15T13:42:12.994Z,22.56
2019-02-15T13:44:41.438Z,22.58
2019-02-15T13:47:11.637Z,22.55
2019-02-15T13:49:40.707Z,22.59
2019-02-15T13:52:10.319Z,22.60
2019-02-15T13:54:38.723Z,22.60
2019-02-15T13:57:06.997Z,22.55
2019-02-15T13:59:35.145Z,22.59
2019-02-15T14:02:04.246Z,22.60
2019-02-15T14:04:32.387Z,22.53
2019-02-15T14:07:00.655Z,22.54
2019-02-15T14:09:28.924Z,22.54
2019-02-15T14:11:57.111Z,22.59
2019-02-15T14:14:25.367Z,22.64
2019-02-15T14:16:53.680Z,22.67
2019-02-15T14:19:22.888Z,22.67
2019-02-15T14:21:51.068Z,22.72
2019-02-15T14:24:19.314Z,22.69
2019-02-15T14:26:47.494Z,22.72
2019-02-15T14:29:15.738Z,22.66
2019-02-15T14:31:43.904Z,22.66
2019-02-15T14:34:12.081Z,22.63
2019-02-15T14:36:40.491Z,22.63
2019-02-15T14:39:11.801Z,22.66
2019-02-15T14:41:40.279Z,22.67
2019-02-15T14:44:09.358Z,22.70
2019-02-15T14:46:37.749Z,22.64
2019-02-15T14:49:06.166Z,22.67
2019-02-15T14:51:34.443Z,22.68
2019-02-15T14:54:02.723Z,22.69
2019-02-15T14:56:30.865Z,22.71
2019-02-15T14:58:59.079Z,22.61
2019-02-15T15:01:27.414Z,22.61
2019-02-15T15:03:55.648Z,22.59
2019-02-15T15:06:23.844Z,22.58
2019-02-15T15:08:52.026Z,22.60
2019-02-15T15:11:20.184Z,22.61
2019-02-15T15:13:48.543Z,22.55
2019-02-15T15:16:16.782Z,22.16
2019-02-15T15:18:44.979Z,22.57
2019-02-15T15:21:13.141Z,22.57
2019-02-15T15:23:41.397Z,22.58
2019-02-15T15:26:12.104Z,22.51
2019-02-15T15:28:39.939Z,22.57
2019-02-15T15:31:08.118Z,22.49
2019-02-15T15:33:36.425Z,22.56
2019-02-15T15:36:04.662Z,22.52
2019-02-15T15:38:32.953Z,22.48
2019-02-15T15:41:01.245Z,22.49
2019-02-15T15:43:29.567Z,22.49
2019-02-15T15:45:57.788Z,22.51
2019-02-15T15:48:26.085Z,22.51
2019-02-15T15:50:54.282Z,22.51
2019-02-15T15:53:22.411Z,22.56
2019-02-15T15:55:50.616Z,22.50
2019-02-15T15:58:18.782Z,22.50
2019-02-15T16:00:46.933Z,22.57
2019-02-15T16:05:48.900Z,22.48
2019-02-15T16:08:17.064Z,22.48
2019-02-15T16:10:45.221Z,22.49
2019-02-15T16:13:13.381Z,22.49
2019-02-15T16:15:41.544Z,22.50
2019-02-15T16:18:09.709Z,22.48
2019-02-15T16:20:37.835Z,22.49
2019-02-15T16:23:06.018Z,22.46
2019-02-15T16:25:34.143Z,22.51
2019-02-15T16:28:02.277Z,22.46
2019-02-15T16:30:30.428Z,22.47
2019-02-15T16:32:58.573Z,22.47
2019-02-15T16:35:26.757Z,22.45
2019-02-15T16:37:54.889Z,22.47
2019-02-15T16:40:23.439Z,22.46
2019-02-15T16:42:51.816Z,22.44
2019-02-15T16:45:19.963Z,22.43
2019-02-15T16:47:48.102Z,22.40
2019-02-15T16:50:16.239Z,22.41
2019-02-15T16:52:44.376Z,22.41
2019-02-15T16:55:13.476Z,22.41
2019-02-15T16:58:01.261Z,22.35
2019-02-15T17:00:29.437Z,22.38
2019-02-15T17:02:57.593Z,22.35
2019-02-15T17:05:25.734Z,22.37
2019-02-15T17:07:53.941Z,22.39
2019-02-15T17:10:22.212Z,22.37
2019-02-15T17:12:50.350Z,22.40
2019-02-15T17:15:18.489Z,22.34
2019-02-15T17:17:46.656Z,22.32
2019-02-15T17:20:14.830Z,22.26
2019-02-15T17:22:42.972Z,22.28
2019-02-15T17:25:11.124Z,22.34
2019-02-15T17:27:39.277Z,22.36
2019-02-15T17:32:55.065Z,22.27
2019-02-15T17:35:42.102Z,22.26
2019-02-15T17:38:10.266Z,21.98
2019-02-15T17:40:38.395Z,22.22
2019-02-15T17:43:06.537Z,22.29
2019-02-15T17:45:34.677Z,22.29
2019-02-15T17:48:02.820Z,22.20
2019-02-15T17:50:30.980Z,22.19
2019-02-15T17:52:59.113Z,22.20
2019-02-15T17:55:27.293Z,22.20
2019-02-15T17:57:55.493Z,22.25
2019-02-15T18:03:19.345Z,22.19
2019-02-15T18:05:47.507Z,22.20
2019-02-15T18:08:15.669Z,22.24
2019-02-15T18:10:43.904Z,22.20
2019-02-15T18:13:12.054Z,22.15
2019-02-15T18:15:40.230Z,22.21
2019-02-15T18:21:19.741Z,22.20
2019-02-15T18:23:47.888Z,22.19
2019-02-15T18:26:16.040Z,22.13
2019-02-15T18:28:44.179Z,22.13
2019-02-15T18:31:12.308Z,22.14
2019-02-15T18:33:40.477Z,22.14
2019-02-15T18:36:11.135Z,22.15
2019-02-15T18:38:40.775Z,22.10
2019-02-15T18:41:13.494Z,22.09
2019-02-15T18:43:39.647Z,22.09
2019-02-15T18:46:26.825Z,22.10
2019-02-15T18:48:54.992Z,22.11
2019-02-15T18:54:10.731Z,22.10
2019-02-15T18:56:39.108Z,22.13
2019-02-15T18:59:07.265Z,22.08
2019-02-15T19:01:35.406Z,22.10
2019-02-15T19:04:03.544Z,22.11
2019-02-15T19:06:31.952Z,22.09
2019-02-15T19:09:00.093Z,22.06
2019-02-15T19:11:28.278Z,22.08
2019-02-15T19:13:56.551Z,22.08
2019-02-15T19:16:25.144Z,22.07
2019-02-15T19:18:53.597Z,22.08
2019-02-15T19:21:21.718Z,22.10
2019-02-15T19:23:49.848Z,22.08
2019-02-15T19:26:18.006Z,22.09
2019-02-15T19:28:46.153Z,22.09
2019-02-15T19:31:14.302Z,22.06
2019-02-15T19:33:42.437Z,22.00
2019-02-15T19:36:29.543Z,22.04
2019-02-15T19:41:31.254Z,22.04
2019-02-15T19:43:59.398Z,22.05
2019-02-15T19:46:27.533Z,22.03
2019-02-15T19:48:55.674Z,22.00
2019-02-15T19:51:23.809Z,22.06
2019-02-15T19:53:51.986Z,22.03
2019-02-15T19:56:20.146Z,21.92
2019-02-15T19:58:48.294Z,21.97
2019-02-15T20:03:50.034Z,21.94
2019-02-15T20:06:37.151Z,21.93
2019-02-15T20:09:06.117Z,21.98
2019-02-15T20:11:34.295Z,21.98
2019-02-15T20:14:02.461Z,21.98
2019-02-15T20:16:30.728Z,21.97
2019-02-15T20:18:58.913Z,21.97
2019-02-15T20:21:27.135Z,21.98
2019-02-15T20:23:55.293Z,21.95
2019-02-15T20:26:23.445Z,21.95
2019-02-15T20:28:51.578Z,21.98
2019-02-15T20:31:19.773Z,21.97
2019-02-15T20:33:48.054Z,21.94
2019-02-15T20:36:16.311Z,21.96
2019-02-15T20:38:44.494Z,21.95
2019-02-15T20:41:12.646Z,21.93
2019-02-15T20:43:40.825Z,21.92
2019-02-15T20:46:09.001Z,21.87
2019-02-15T20:48:37.270Z,21.86
2019-02-15T20:51:05.481Z,21.88
2019-02-15T20:53:33.670Z,21.87
2019-02-15T20:56:01.865Z,21.89
2019-02-15T20:58:30.043Z,21.89
2019-02-15T21:00:58.365Z,21.87
2019-02-15T21:06:14.655Z,21.87
2019-02-15T21:08:43.836Z,21.87
2019-02-15T21:11:12.046Z,21.87
2019-02-15T21:13:40.200Z,21.91
2019-02-15T21:16:08.413Z,21.93
2019-02-15T21:18:36.653Z,21.99
2019-02-15T21:21:04.847Z,21.93
2019-02-15T21:23:33.016Z,21.91
2019-02-15T21:26:01.170Z,21.92
2019-02-15T21:28:29.325Z,21.94
2019-02-15T21:30:57.522Z,21.91
2019-02-15T21:33:25.672Z,21.91
2019-02-15T21:35:53.817Z,21.87
2019-02-15T21:38:22.002Z,21.88
2019-02-15T21:40:50.178Z,21.90
2019-02-15T21:43:37.511Z,21.91
2019-02-15T21:46:05.673Z,21.87
2019-02-15T21:48:52.759Z,21.83
2019-02-15T21:51:20.909Z,21.85
2019-02-15T21:53:49.122Z,21.87
2019-02-15T21:56:36.181Z,21.90
2019-02-15T22:01:51.562Z,21.88
2019-02-15T22:04:19.730Z,21.90
2019-02-15T22:06:48.077Z,21.90
2019-02-15T22:09:16.366Z,21.88
2019-02-15T22:11:44.637Z,21.84
2019-02-15T22:14:12.861Z,21.82
2019-02-15T22:16:41.097Z,21.85
2019-02-15T22:19:09.289Z,21.84
2019-02-15T22:21:37.502Z,21.84
2019-02-15T22:24:05.816Z,21.80
2019-02-15T22:26:34.008Z,21.77
2019-02-15T22:29:02.189Z,21.78
2019-02-15T22:31:30.337Z,21.76
2019-02-15T22:33:58.540Z,21.80
2019-02-15T22:36:26.639Z,21.76
2019-02-15T22:38:54.851Z,21.79
2019-02-15T22:41:23.035Z,21.77
2019-02-15T22:43:51.201Z,21.76
2019-02-15T22:46:19.336Z,21.72
2019-02-15T22:48:47.548Z,21.72
2019-02-15T22:51:15.708Z,21.73
2019-02-15T22:53:43.889Z,21.73
2019-02-15T22:56:12.087Z,21.69
2019-02-15T22:58:40.304Z,21.70
2019-02-15T23:01:10.134Z,21.68
2019-02-15T23:03:38.320Z,21.69
2019-02-15T23:06:06.593Z,21.67
2019-02-15T23:08:34.829Z,21.67
2019-02-15T23:11:03.027Z,21.68
2019-02-15T23:13:31.293Z,21.67
2019-02-15T23:15:59.478Z,21.67
2019-02-15T23:18:27.685Z,21.67
2019-02-15T23:20:55.857Z,21.66
2019-02-15T23:23:24.017Z,21.65
2019-02-15T23:25:52.264Z,21.68
2019-02-15T23:28:20.460Z,21.66
2019-02-15T23:30:48.651Z,21.73
2019-02-15T23:33:16.862Z,21.71
2019-02-15T23:35:45.087Z,21.63
2019-02-15T23:38:13.361Z,21.68
2019-02-15T23:40:41.590Z,21.75
2019-02-15T23:43:09.837Z,21.64
2019-02-15T23:45:38.105Z,21.63
2019-02-15T23:48:06.254Z,21.63
2019-02-15T23:50:34.430Z,21.58
2019-02-15T23:53:02.598Z,21.69
2019-02-15T23:55:30.747Z,21.71
2019-02-15T23:57:58.949Z,21.68
